Time;durP1;ratioP1;P1;durP2;ratioP2;P2;SDS_P1;SDS_P2;PMS_P1;PMS_P2;Temp;Humidity;BMP_temperature;BMP_pressure;BME280_temperature;BME280_humidity;BME280_pressure;Samples;Min_cycle;Max_cycle;Signal;HPM_P1;HPM_P2
2021/12/24 00:00:17;;;;;;;52.13;26.73;;;;;;;;;;5062333;28;20357;-83
2021/12/24 00:02:42;;;;;;;50.97;24.13;;;;;;;;;;5087089;28;20532;-82
2021/12/24 00:05:08;;;;;;;53.93;23.03;;;;;;;;;;5066790;28;20108;-83
2021/12/24 00:07:33;;;;;;;55.40;23.00;;;;;;;;;;5065666;28;20017;-83
2021/12/24 00:09:58;;;;;;;60.07;25.50;;;;;;;;;;5055260;28;20025;-83
2021/12/24 00:12:26;;;;;;;51.83;21.87;;;;;;;;;;5062115;28;20391;-83
2021/12/24 00:14:57;;;;;;;45.17;21.33;;;;;;;;;;5062905;28;20021;-83
2021/12/24 00:17:28;;;;;;;52.33;22.47;;;;;;;;;;5061484;28;20029;-83
2021/12/24 00:35:45;;;;;;;49.83;24.13;;;;;;;;;;5054913;28;20085;-82
2021/12/24 00:38:11;;;;;;;45.13;21.60;;;;;;;;;;5062328;28;20738;-82
2021/12/24 00:40:44;;;;;;;46.00;20.27;;;;;;;;;;5053317;28;20028;-82
2021/12/24 00:43:10;;;;;;;41.90;20.00;;;;;;;;;;5054420;28;20033;-83
2021/12/24 00:45:39;;;;;;;38.67;18.23;;;;;;;;;;5061108;28;20037;-82
2021/12/24 00:48:06;;;;;;;43.57;19.93;;;;;;;;;;5061118;28;20063;-83
2021/12/24 00:50:44;;;;;;;40.80;21.47;;;;;;;;;;5056009;28;20024;-82
2021/12/24 00:55:02;;;;;;;34.27;16.40;;;;;;;;;;5063049;28;20434;-83
2021/12/24 00:55:55;;;;;;;45.17;21.13;;;;;;;;;;5061542;28;20033;-82
2021/12/24 00:58:20;;;;;;;45.47;21.10;;;;;;;;;;5061675;28;20032;-83
2021/12/24 01:00:45;;;;;;;38.47;22.00;;;;;;;;;;5085816;28;20416;-82
2021/12/24 01:03:11;;;;;;;40.00;18.60;;;;;;;;;;5061806;28;20024;-82
2021/12/24 01:05:37;;;;;;;40.43;20.53;;;;;;;;;;5060824;28;20021;-82
2021/12/24 01:08:03;;;;;;;40.40;19.43;;;;;;;;;;5052913;28;20389;-82
2021/12/24 01:10:33;;;;;;;48.43;20.20;;;;;;;;;;5060604;28;20420;-82
2021/12/24 01:12:58;;;;;;;36.43;20.93;;;;;;;;;;5052811;28;20021;-82
2021/12/24 01:15:24;;;;;;;38.90;22.30;;;;;;;;;;5053737;28;20031;-82
2021/12/24 01:20:43;;;;;;;42.07;19.17;;;;;;;;;;5055018;28;20016;-82
2021/12/24 01:38:34;;;;;;;44.50;20.87;;;;;;;;;;5054692;28;20066;-82
2021/12/24 01:43:25;;;;;;;38.40;18.00;;;;;;;;;;5062738;28;20491;-82
2021/12/24 01:45:52;;;;;;;38.57;19.63;;;;;;;;;;5085005;28;20024;-83
2021/12/24 01:48:17;;;;;;;36.70;16.80;;;;;;;;;;5060284;28;20047;-82
2021/12/24 01:50:47;;;;;;;38.07;16.73;;;;;;;;;;5062961;28;20036;-82
2021/12/24 01:53:16;;;;;;;42.63;21.03;;;;;;;;;;5062538;28;20025;-82
2021/12/24 01:55:43;;;;;;;38.83;18.40;;;;;;;;;;5059368;28;20029;-83
2021/12/24 01:58:08;;;;;;;41.33;16.40;;;;;;;;;;5063251;28;20036;-82
2021/12/24 02:00:38;;;;;;;45.90;20.97;;;;;;;;;;5061918;28;20032;-82
2021/12/24 02:03:04;;;;;;;40.20;17.53;;;;;;;;;;5056663;28;20028;-82
2021/12/24 02:05:31;;;;;;;40.57;18.20;;;;;;;;;;5052666;28;20021;-82
2021/12/24 02:07:56;;;;;;;40.53;16.03;;;;;;;;;;5051714;28;20020;-83
2021/12/24 02:10:22;;;;;;;38.00;18.53;;;;;;;;;;5084597;28;20465;-83
2021/12/24 02:12:47;;;;;;;40.27;18.43;;;;;;;;;;5062020;28;20024;-82
2021/12/24 02:15:25;;;;;;;38.67;17.17;;;;;;;;;;5062936;28;20020;-82
2021/12/24 02:28:38;;;;;;;35.80;18.07;;;;;;;;;;5061723;28;20036;-82
2021/12/24 02:31:05;;;;;;;38.73;16.97;;;;;;;;;;5063559;28;20021;-82
2021/12/24 02:33:30;;;;;;;41.53;18.00;;;;;;;;;;5056069;28;20029;-83
2021/12/24 02:35:56;;;;;;;40.83;19.07;;;;;;;;;;5054680;28;20031;-83
2021/12/24 02:38:21;;;;;;;41.07;17.87;;;;;;;;;;5062551;28;20082;-82
2021/12/24 02:40:46;;;;;;;41.33;18.33;;;;;;;;;;5060988;28;20107;-83
2021/12/24 02:43:16;;;;;;;39.70;19.70;;;;;;;;;;5059157;28;20021;-83
2021/12/24 02:45:43;;;;;;;41.13;18.00;;;;;;;;;;5060010;28;20120;-83
2021/12/24 02:48:35;;;;;;;42.27;18.63;;;;;;;;;;5051285;28;20028;-83
2021/12/24 02:56:26;;;;;;;45.53;17.90;;;;;;;;;;5046797;28;20029;-83
2021/12/24 02:58:51;;;;;;;36.47;18.70;;;;;;;;;;5052255;28;20432;-82
2021/12/24 03:01:18;;;;;;;40.40;16.27;;;;;;;;;;5063351;28;20097;-82
2021/12/24 03:03:48;;;;;;;42.70;19.50;;;;;;;;;;5055525;28;20033;-83
2021/12/24 03:06:13;;;;;;;41.90;16.77;;;;;;;;;;5051577;28;20048;-82
2021/12/24 03:08:38;;;;;;;34.43;18.30;;;;;;;;;;5060504;28;20574;-82
2021/12/24 03:11:03;;;;;;;42.37;18.53;;;;;;;;;;5052232;28;20439;-83
2021/12/24 03:13:29;;;;;;;35.43;16.07;;;;;;;;;;5059650;28;20388;-82
2021/12/24 03:15:58;;;;;;;37.27;14.40;;;;;;;;;;5054651;28;20048;-82
2021/12/24 03:18:29;;;;;;;34.43;16.97;;;;;;;;;;5059588;28;20078;-82
2021/12/24 03:20:59;;;;;;;39.07;16.57;;;;;;;;;;5065102;28;20614;-82
2021/12/24 03:23:46;;;;;;;40.27;15.97;;;;;;;;;;5062915;28;20374;-82
2021/12/24 03:26:15;;;;;;;41.10;16.97;;;;;;;;;;5065644;28;20036;-82
2021/12/24 03:28:41;;;;;;;38.77;17.63;;;;;;;;;;5066315;28;20029;-83
2021/12/24 03:31:07;;;;;;;37.00;17.07;;;;;;;;;;5074981;28;20383;-82
2021/12/24 03:33:33;;;;;;;31.83;14.33;;;;;;;;;;5076181;28;20096;-82
2021/12/24 03:35:59;;;;;;;36.50;16.23;;;;;;;;;;5076185;28;20418;-83
2021/12/24 03:38:24;;;;;;;40.87;17.30;;;;;;;;;;5075935;28;20082;-82
2021/12/24 03:40:49;;;;;;;36.50;16.85;;;;;;;;;;5073816;28;20027;-82
2021/12/24 03:43:15;;;;;;;39.23;16.23;;;;;;;;;;5062021;28;20381;-82
2021/12/24 03:45:59;;;;;;;37.67;16.43;;;;;;;;;;5063600;28;20052;-82
2021/12/24 03:56:25;;;;;;;37.77;15.83;;;;;;;;;;5055338;28;20039;-82
2021/12/24 03:58:50;;;;;;;36.47;14.30;;;;;;;;;;5064772;28;20395;-83
2021/12/24 04:01:15;;;;;;;38.30;16.10;;;;;;;;;;5062121;28;20525;-83
2021/12/24 04:03:40;;;;;;;33.80;16.13;;;;;;;;;;5063403;28;20529;-83
2021/12/24 04:06:05;;;;;;;38.33;15.57;;;;;;;;;;5061871;28;20036;-83
2021/12/24 04:08:31;;;;;;;38.30;17.13;;;;;;;;;;5086984;28;20021;-83
2021/12/24 04:10:56;;;;;;;36.63;15.60;;;;;;;;;;5086894;28;20036;-83
2021/12/24 04:13:21;;;;;;;49.00;16.87;;;;;;;;;;5063449;28;20388;-82
2021/12/24 04:15:46;;;;;;;40.30;16.55;;;;;;;;;;5062371;28;20108;-83
2021/12/24 04:18:21;;;;;;;36.53;14.90;;;;;;;;;;5061936;28;20384;-82
2021/12/24 04:26:14;;;;;;;41.83;14.83;;;;;;;;;;5054766;28;20039;-83
2021/12/24 04:28:39;;;;;;;38.40;16.33;;;;;;;;;;5061463;28;20017;-82
2021/12/24 04:31:05;;;;;;;44.37;13.83;;;;;;;;;;5056085;28;20045;-82
2021/12/24 04:33:37;;;;;;;32.33;15.43;;;;;;;;;;5059827;28;20500;-83
2021/12/24 05:03:14;;;;;;;49.40;16.63;;;;;;;;;;5065103;28;20112;-82
2021/12/24 05:05:46;;;;;;;41.17;14.50;;;;;;;;;;5045617;28;20032;-82
2021/12/24 05:08:26;;;;;;;40.95;14.10;;;;;;;;;;5085772;28;20484;-82
2021/12/24 05:10:52;;;;;;;39.77;14.87;;;;;;;;;;5060945;28;20021;-82
2021/12/24 05:13:18;;;;;;;36.37;16.50;;;;;;;;;;5060784;28;20024;-82
2021/12/24 05:15:47;;;;;;;37.03;14.27;;;;;;;;;;5052586;28;20392;-82
2021/12/24 05:18:29;;;;;;;44.00;16.43;;;;;;;;;;5060164;28;20021;-83
2021/12/24 05:23:39;;;;;;;45.63;15.70;;;;;;;;;;5054248;28;20067;-83
2021/12/24 05:26:04;;;;;;;45.17;15.33;;;;;;;;;;5085536;28;20025;-82
2021/12/24 05:28:29;;;;;;;36.57;14.83;;;;;;;;;;5052441;28;20507;-82
2021/12/24 05:30:55;;;;;;;40.67;13.57;;;;;;;;;;5061337;28;20020;-82
2021/12/24 05:33:20;;;;;;;38.53;14.43;;;;;;;;;;5054982;28;20023;-82
2021/12/24 05:35:45;;;;;;;35.83;14.85;;;;;;;;;;5052310;28;20595;-82
2021/12/24 05:38:15;;;;;;;39.65;15.25;;;;;;;;;;5052142;28;20025;-82
2021/12/24 05:40:40;;;;;;;37.90;13.03;;;;;;;;;;5059947;28;20017;-82
2021/12/24 05:43:05;;;;;;;35.47;14.27;;;;;;;;;;5052510;28;20048;-83
2021/12/24 05:45:31;;;;;;;49.73;14.63;;;;;;;;;;5060886;28;20024;-83
2021/12/24 05:47:56;;;;;;;44.15;15.45;;;;;;;;;;5058816;28;20020;-82
2021/12/24 05:50:21;;;;;;;47.13;15.45;;;;;;;;;;5059880;28;20019;-82
2021/12/24 05:52:47;;;;;;;37.55;14.85;;;;;;;;;;5063030;28;20021;-82
2021/12/24 05:55:12;;;;;;;39.93;14.03;;;;;;;;;;5064801;28;20055;-83
2021/12/24 05:57:37;;;;;;;35.15;13.05;;;;;;;;;;5055024;28;20037;-82
2021/12/24 06:00:05;;;;;;;41.03;13.67;;;;;;;;;;5057842;28;20017;-83
2021/12/24 06:02:31;;;;;;;33.83;13.83;;;;;;;;;;5070404;28;20686;-82
2021/12/24 06:04:56;;;;;;;49.30;13.70;;;;;;;;;;5066083;28;20079;-82
2021/12/24 06:07:21;;;;;;;40.53;15.07;;;;;;;;;;5056201;28;20074;-83
2021/12/24 06:09:46;;;;;;;41.00;13.60;;;;;;;;;;5056785;28;20025;-83
2021/12/24 06:12:11;;;;;;;36.83;13.50;;;;;;;;;;5049796;28;20377;-82
2021/12/24 06:14:39;;;;;;;46.60;15.10;;;;;;;;;;5048853;28;20025;-82
2021/12/24 06:17:10;;;;;;;39.73;14.73;;;;;;;;;;5043476;28;20028;-82
2021/12/24 06:19:35;;;;;;;38.00;13.75;;;;;;;;;;5064392;28;20081;-83
2021/12/24 06:22:00;;;;;;;40.37;13.50;;;;;;;;;;5049167;28;20473;-83
2021/12/24 06:24:26;;;;;;;33.33;12.90;;;;;;;;;;5049366;28;20482;-83
2021/12/24 06:26:51;;;;;;;48.93;13.37;;;;;;;;;;5058312;28;20013;-82
2021/12/24 06:29:17;;;;;;;40.53;14.93;;;;;;;;;;5055295;28;20105;-83
2021/12/24 06:31:43;;;;;;;42.33;13.60;;;;;;;;;;5058777;28;20051;-83
2021/12/24 06:34:08;;;;;;;35.43;13.57;;;;;;;;;;5049073;28;20013;-81
2021/12/24 06:36:36;;;;;;;37.87;15.63;;;;;;;;;;5054827;28;20032;-82
2021/12/24 06:39:04;;;;;;;43.20;14.10;;;;;;;;;;5050369;28;20086;-83
2021/12/24 06:41:29;;;;;;;44.07;15.33;;;;;;;;;;5047923;28;20060;-82
2021/12/24 06:43:54;;;;;;;36.42;13.57;;;;;;;;;;5055432;28;20032;-82
2021/12/24 06:46:19;;;;;;;34.03;13.13;;;;;;;;;;5055918;28;20016;-82
2021/12/24 06:48:45;;;;;;;50.33;14.23;;;;;;;;;;5062996;28;20111;-82
2021/12/24 06:51:10;;;;;;;39.15;14.18;;;;;;;;;;5071101;28;20104;-82
2021/12/24 06:53:36;;;;;;;37.58;12.95;;;;;;;;;;5059218;28;20366;-82
2021/12/24 06:56:01;;;;;;;32.77;13.40;;;;;;;;;;5059840;28;20054;-82
2021/12/24 06:58:26;;;;;;;46.70;13.80;;;;;;;;;;5068187;28;20036;-82
2021/12/24 07:00:52;;;;;;;38.20;13.50;;;;;;;;;;5064987;28;20032;-82
2021/12/24 07:03:17;;;;;;;40.08;16.10;;;;;;;;;;5057499;28;20388;-82
2021/12/24 07:05:42;;;;;;;39.85;14.13;;;;;;;;;;5058406;28;20465;-83
2021/12/24 07:08:07;;;;;;;53.30;14.37;;;;;;;;;;5089627;28;20025;-83
2021/12/24 07:10:33;;;;;;;40.60;14.37;;;;;;;;;;5055529;28;20021;-82
2021/12/24 07:12:58;;;;;;;44.90;15.40;;;;;;;;;;5054980;28;20012;-83
2021/12/24 07:15:23;;;;;;;44.30;14.70;;;;;;;;;;5073492;28;20029;-83
2021/12/24 07:17:49;;;;;;;44.47;14.10;;;;;;;;;;5057593;28;20389;-82
2021/12/24 07:20:14;;;;;;;41.33;14.27;;;;;;;;;;5050385;28;21008;-82
2021/12/24 07:22:39;;;;;;;43.72;15.07;;;;;;;;;;5060601;28;20416;-82
2021/12/24 07:25:06;;;;;;;45.93;15.43;;;;;;;;;;5060010;28;20025;-82
2021/12/24 07:27:31;;;;;;;47.73;14.90;;;;;;;;;;5058945;28;20044;-83
2021/12/24 07:29:56;;;;;;;41.08;13.63;;;;;;;;;;5056610;28;20013;-82
2021/12/24 07:32:22;;;;;;;35.07;12.47;;;;;;;;;;5060885;28;20074;-82
2021/12/24 07:34:47;;;;;;;36.20;14.13;;;;;;;;;;5062060;28;20025;-83
2021/12/24 07:37:14;;;;;;;38.83;13.77;;;;;;;;;;5060183;28;20072;-82
2021/12/24 07:39:39;;;;;;;43.33;14.35;;;;;;;;;;5059302;28;20063;-82
2021/12/24 07:42:04;;;;;;;41.47;14.13;;;;;;;;;;5057573;28;20997;-83
2021/12/24 07:44:33;;;;;;;36.85;12.43;;;;;;;;;;5062329;28;20104;-82
2021/12/24 07:47:01;;;;;;;42.17;14.13;;;;;;;;;;5064416;28;20027;-82
2021/12/24 07:54:26;;;;;;;39.10;14.00;;;;;;;;;;5057815;28;20028;-82
2021/12/24 07:56:52;;;;;;;36.83;14.23;;;;;;;;;;5068343;28;20377;-82
2021/12/24 07:59:17;;;;;;;43.10;14.93;;;;;;;;;;5055514;28;20052;-82
2021/12/24 08:01:44;;;;;;;44.73;15.17;;;;;;;;;;5054540;28;20013;-82
2021/12/24 08:04:10;;;;;;;43.77;14.67;;;;;;;;;;5059834;28;20074;-82
2021/12/24 08:06:36;;;;;;;43.42;17.10;;;;;;;;;;5054862;28;20103;-83
2021/12/24 08:09:01;;;;;;;31.47;14.27;;;;;;;;;;5048290;28;20492;-83
2021/12/24 08:11:26;;;;;;;41.28;15.90;;;;;;;;;;5050295;28;20033;-83
2021/12/24 08:13:51;;;;;;;50.13;14.43;;;;;;;;;;5055527;28;20028;-83
2021/12/24 08:16:17;;;;;;;40.13;15.50;;;;;;;;;;5049893;28;20464;-82
2021/12/24 08:18:45;;;;;;;41.63;15.40;;;;;;;;;;5051512;28;20025;-82
2021/12/24 08:21:10;;;;;;;39.00;15.20;;;;;;;;;;5048197;28;20017;-83
2021/12/24 08:23:35;;;;;;;47.83;15.27;;;;;;;;;;5053983;28;20017;-83
2021/12/24 08:26:01;;;;;;;40.30;14.90;;;;;;;;;;5054087;28;20020;-83
2021/12/24 08:28:26;;;;;;;46.95;15.80;;;;;;;;;;5056560;28;20021;-83
2021/12/24 08:30:52;;;;;;;46.97;16.23;;;;;;;;;;5056789;28;20112;-82
2021/12/24 08:33:17;;;;;;;37.78;16.67;;;;;;;;;;5061549;28;20108;-82
2021/12/24 08:35:42;;;;;;;54.60;17.10;;;;;;;;;;5058477;28;20490;-83
2021/12/24 08:38:08;;;;;;;48.97;18.27;;;;;;;;;;5055661;28;20055;-82
2021/12/24 08:40:33;;;;;;;48.33;16.63;;;;;;;;;;5053338;28;20083;-83
2021/12/24 08:42:58;;;;;;;41.43;16.83;;;;;;;;;;5062300;28;20028;-83
2021/12/24 08:45:24;;;;;;;44.10;16.53;;;;;;;;;;5060215;28;20027;-82
2021/12/24 08:47:49;;;;;;;38.80;15.20;;;;;;;;;;5056991;28;20031;-83
2021/12/24 08:50:14;;;;;;;42.10;16.93;;;;;;;;;;5059047;28;20095;-83
2021/12/24 08:52:42;;;;;;;41.97;16.10;;;;;;;;;;5063854;28;20077;-82
2021/12/24 08:55:07;;;;;;;47.93;16.57;;;;;;;;;;5054712;28;20028;-83
2021/12/24 08:57:33;;;;;;;36.67;14.17;;;;;;;;;;5056273;28;20021;-82
2021/12/24 08:59:58;;;;;;;39.25;17.08;;;;;;;;;;5062054;28;20037;-82
2021/12/24 09:02:23;;;;;;;43.72;16.92;;;;;;;;;;5058979;28;20055;-83
2021/12/24 09:04:48;;;;;;;45.23;15.13;;;;;;;;;;5056982;28;20491;-83
2021/12/24 09:07:13;;;;;;;36.10;14.67;;;;;;;;;;5056640;28;20049;-83
2021/12/24 09:09:39;;;;;;;39.90;16.70;;;;;;;;;;5061071;28;20020;-83
2021/12/24 09:12:04;;;;;;;41.60;15.97;;;;;;;;;;5065135;28;20027;-82
2021/12/24 09:14:29;;;;;;;40.90;16.00;;;;;;;;;;5058159;28;20093;-83
2021/12/24 09:16:55;;;;;;;40.43;13.70;;;;;;;;;;5058376;28;20021;-83
2021/12/24 09:19:24;;;;;;;44.33;16.17;;;;;;;;;;5055359;28;20025;-83
2021/12/24 09:21:50;;;;;;;38.43;15.87;;;;;;;;;;5079752;28;20044;-83
2021/12/24 09:24:18;;;;;;;38.03;15.10;;;;;;;;;;5060585;28;20064;-82
2021/12/24 09:26:43;;;;;;;36.57;14.40;;;;;;;;;;5061781;28;20055;-83
2021/12/24 09:29:09;;;;;;;34.93;15.33;;;;;;;;;;5060471;28;20100;-82
2021/12/24 09:31:35;;;;;;;36.95;15.25;;;;;;;;;;5058565;28;20063;-83
2021/12/24 09:34:00;;;;;;;40.00;14.87;;;;;;;;;;5061649;28;20099;-82
2021/12/24 09:36:28;;;;;;;36.13;15.97;;;;;;;;;;5052288;28;20024;-82
2021/12/24 09:38:54;;;;;;;41.50;15.93;;;;;;;;;;5054866;28;20065;-82
2021/12/24 09:41:20;;;;;;;42.10;15.57;;;;;;;;;;5085091;28;20025;-82
2021/12/24 09:43:45;;;;;;;33.77;14.63;;;;;;;;;;5085040;28;20034;-83
2021/12/24 09:46:12;;;;;;;36.43;15.70;;;;;;;;;;5087086;28;20032;-82
2021/12/24 09:48:37;;;;;;;40.40;16.27;;;;;;;;;;5062000;28;20028;-82
2021/12/24 09:51:02;;;;;;;40.70;17.50;;;;;;;;;;5055340;28;20057;-82
2021/12/24 09:53:28;;;;;;;50.10;16.37;;;;;;;;;;5055753;28;20105;-82
2021/12/24 09:55:53;;;;;;;41.75;16.40;;;;;;;;;;5063057;28;20054;-82
2021/12/24 09:58:18;;;;;;;38.40;15.85;;;;;;;;;;5054032;28;20066;-82
2021/12/24 10:00:43;;;;;;;34.13;15.17;;;;;;;;;;5055156;28;20074;-83
2021/12/24 10:03:08;;;;;;;38.77;15.73;;;;;;;;;;5063386;28;20102;-82
2021/12/24 10:05:36;;;;;;;40.33;15.47;;;;;;;;;;5059964;28;20063;-83
2021/12/24 10:08:04;;;;;;;32.10;13.97;;;;;;;;;;5063083;28;20103;-83
2021/12/24 10:10:31;;;;;;;38.00;14.43;;;;;;;;;;5060979;28;20108;-82
2021/12/24 10:13:16;;;;;;;48.25;17.75;;;;;;;;;;5060562;28;20013;-83
2021/12/24 10:15:55;;;;;;;36.80;15.80;;;;;;;;;;5047193;28;20386;-82
2021/12/24 10:18:28;;;;;;;40.77;16.73;;;;;;;;;;5059555;28;20024;-82
2021/12/24 10:21:00;;;;;;;37.53;15.40;;;;;;;;;;5062967;28;20023;-82
2021/12/24 10:23:42;;;;;;;37.67;16.98;;;;;;;;;;5053869;28;20021;-82
2021/12/24 10:26:27;;;;;;;42.08;15.15;;;;;;;;;;5062444;28;20020;-82
2021/12/24 10:29:08;;;;;;;46.30;18.17;;;;;;;;;;5061703;28;20013;-82
2021/12/24 10:31:53;;;;;;;40.77;16.23;;;;;;;;;;5053797;28;20468;-82
2021/12/24 10:34:19;;;;;;;44.80;17.67;;;;;;;;;;5061810;28;20033;-83
2021/12/24 10:36:51;;;;;;;41.13;13.87;;;;;;;;;;5054519;28;20033;-82
2021/12/24 10:39:17;;;;;;;41.20;14.50;;;;;;;;;;5054762;28;20017;-82
2021/12/24 10:41:43;;;;;;;37.20;13.00;;;;;;;;;;5063454;28;20021;-83
2021/12/24 10:44:22;;;;;;;43.05;16.83;;;;;;;;;;5056179;28;20075;-82
2021/12/24 10:46:57;;;;;;;39.33;16.83;;;;;;;;;;5053635;28;20025;-82
2021/12/24 10:49:37;;;;;;;34.63;14.20;;;;;;;;;;5053884;28;20028;-82
2021/12/24 10:55:02;;;;;;;41.93;16.13;;;;;;;;;;5060769;28;20025;-82
2021/12/24 10:57:29;;;;;;;43.08;15.13;;;;;;;;;;5054324;28;20389;-82
2021/12/24 10:59:56;;;;;;;39.87;16.00;;;;;;;;;;5052413;28;20078;-82
2021/12/24 11:02:23;;;;;;;41.77;18.13;;;;;;;;;;5050987;28;20024;-82
2021/12/24 11:04:49;;;;;;;47.73;16.30;;;;;;;;;;5052609;28;20021;-83
2021/12/24 11:07:33;;;;;;;35.30;13.40;;;;;;;;;;5058506;28;20100;-83
2021/12/24 11:10:04;;;;;;;42.83;17.43;;;;;;;;;;5049610;28;20020;-82
2021/12/24 11:12:36;;;;;;;41.97;16.53;;;;;;;;;;5059962;28;20372;-83
2021/12/24 11:15:01;;;;;;;47.25;16.08;;;;;;;;;;5039788;28;20021;-83
2021/12/24 11:17:39;;;;;;;50.00;17.67;;;;;;;;;;5056469;28;20036;-82
2021/12/24 11:20:11;;;;;;;43.83;16.97;;;;;;;;;;5049401;28;20581;-83
2021/12/24 11:22:54;;;;;;;48.85;16.05;;;;;;;;;;5055911;28;20473;-83
2021/12/24 11:25:20;;;;;;;45.88;18.58;;;;;;;;;;5056896;28;20030;-83
2021/12/24 11:27:46;;;;;;;39.73;18.07;;;;;;;;;;5052605;28;20033;-83
2021/12/24 11:30:11;;;;;;;43.87;16.97;;;;;;;;;;5055020;28;20098;-82
2021/12/24 11:32:37;;;;;;;46.97;17.55;;;;;;;;;;5063547;28;20044;-83
2021/12/24 11:35:02;;;;;;;39.90;16.15;;;;;;;;;;5053531;28;20567;-82
2021/12/24 11:37:28;;;;;;;49.27;17.10;;;;;;;;;;5057991;28;20163;-82
2021/12/24 11:39:54;;;;;;;46.75;15.45;;;;;;;;;;5047741;28;20040;-82
2021/12/24 11:42:21;;;;;;;47.27;18.60;;;;;;;;;;5056059;28;20083;-82
2021/12/24 11:44:46;;;;;;;41.47;15.45;;;;;;;;;;5054956;28;20024;-83
2021/12/24 11:47:11;;;;;;;40.10;17.20;;;;;;;;;;5065830;28;20371;-82
2021/12/24 11:49:36;;;;;;;41.60;17.20;;;;;;;;;;5065962;28;20123;-83
2021/12/24 11:52:03;;;;;;;43.30;17.55;;;;;;;;;;5056761;28;20523;-82
2021/12/24 11:54:28;;;;;;;38.35;14.90;;;;;;;;;;5057636;28;20017;-82
2021/12/24 11:56:55;;;;;;;40.75;17.38;;;;;;;;;;5053850;28;20111;-82
2021/12/24 11:59:34;;;;;;;44.30;16.20;;;;;;;;;;5065572;28;20453;-83
2021/12/24 12:01:59;;;;;;;41.78;16.52;;;;;;;;;;5058786;28;20363;-83
2021/12/24 12:04:24;;;;;;;46.60;16.00;;;;;;;;;;5060189;28;20047;-82
2021/12/24 12:06:51;;;;;;;34.03;14.93;;;;;;;;;;5055172;28;20022;-82
2021/12/24 12:09:16;;;;;;;45.53;14.93;;;;;;;;;;5064678;28;20020;-82
2021/12/24 12:11:43;;;;;;;35.22;14.45;;;;;;;;;;5055747;28;20487;-82
2021/12/24 12:14:11;;;;;;;39.80;15.25;;;;;;;;;;5065859;28;20049;-83
2021/12/24 12:16:39;;;;;;;39.87;14.27;;;;;;;;;;5053348;28;20063;-83
2021/12/24 12:19:14;;;;;;;41.90;13.63;;;;;;;;;;5055333;28;20032;-82
2021/12/24 12:21:42;;;;;;;34.50;13.73;;;;;;;;;;5060670;28;20028;-82
2021/12/24 12:26:39;;;;;;;31.10;13.55;;;;;;;;;;5059913;28;20388;-82
2021/12/24 12:29:23;;;;;;;32.57;12.13;;;;;;;;;;5050312;28;20017;-83
2021/12/24 12:31:50;;;;;;;38.80;12.57;;;;;;;;;;5068607;28;20568;-82
2021/12/24 12:34:35;;;;;;;34.90;13.20;;;;;;;;;;5056716;28;20071;-82
2021/12/24 12:37:17;;;;;;;30.00;9.30;;;;;;;;;;5064815;28;20021;-82
2021/12/24 12:39:42;;;;;;;;;;;;;;;;;;5048589;28;20108;-83
2021/12/24 12:42:08;;;;;;;32.67;11.57;;;;;;;;;;5052691;28;19959;-82
2021/12/24 12:44:34;;;;;;;32.75;11.95;;;;;;;;;;5053243;28;20112;-82
2021/12/24 12:47:09;;;;;;;30.48;12.05;;;;;;;;;;5057086;28;20013;-83
2021/12/24 12:49:35;;;;;;;34.13;13.90;;;;;;;;;;5049402;28;20017;-82
2021/12/24 12:52:02;;;;;;;32.72;11.75;;;;;;;;;;5051306;28;20112;-83
2021/12/24 12:54:47;;;;;;;33.88;12.30;;;;;;;;;;5051025;28;20033;-83
2021/12/24 12:57:30;;;;;;;28.70;11.45;;;;;;;;;;5048168;28;20100;-82
2021/12/24 13:00:08;;;;;;;30.33;11.35;;;;;;;;;;5050217;28;20629;-82
2021/12/24 13:02:52;;;;;;;31.75;11.40;;;;;;;;;;5051847;28;20032;-82
2021/12/24 13:05:17;;;;;;;29.13;11.55;;;;;;;;;;5059410;28;20469;-82
2021/12/24 13:07:43;;;;;;;33.47;11.70;;;;;;;;;;5053311;28;20070;-82
2021/12/24 13:10:08;;;;;;;32.93;10.37;;;;;;;;;;5051636;28;20108;-82
2021/12/24 13:12:34;;;;;;;33.45;12.05;;;;;;;;;;5054986;28;20124;-82
2021/12/24 13:14:59;;;;;;;33.95;11.30;;;;;;;;;;5053138;28;20040;-82
2021/12/24 13:17:36;;;;;;;29.13;11.48;;;;;;;;;;5053102;28;20025;-82
2021/12/24 13:20:13;;;;;;;39.45;11.65;;;;;;;;;;5051701;28;20052;-82
2021/12/24 13:22:39;;;;;;;33.38;11.73;;;;;;;;;;5048753;28;20151;-82
2021/12/24 13:25:09;;;;;;;29.63;11.05;;;;;;;;;;5053970;28;20119;-82
2021/12/24 13:27:40;;;;;;;27.30;12.23;;;;;;;;;;5057738;28;20035;-83
2021/12/24 13:30:08;;;;;;;30.50;10.98;;;;;;;;;;5051287;28;20020;-83
2021/12/24 13:32:57;;;;;;;31.13;11.30;;;;;;;;;;5045860;28;20033;-83
2021/12/24 13:35:24;;;;;;;30.88;11.68;;;;;;;;;;5048365;28;20040;-83
2021/12/24 13:37:50;;;;;;;31.05;11.95;;;;;;;;;;5044482;28;20028;-83
2021/12/24 13:40:18;;;;;;;43.08;13.07;;;;;;;;;;5059306;28;20116;-82
2021/12/24 13:42:47;;;;;;;32.00;11.90;;;;;;;;;;5051393;28;20516;-82
2021/12/24 13:45:13;;;;;;;32.20;11.40;;;;;;;;;;5050971;28;20025;-83
2021/12/24 13:47:55;;;;;;;33.15;12.05;;;;;;;;;;5052489;28;20035;-83
2021/12/24 13:55:35;;;;;;;31.02;11.88;;;;;;;;;;5059221;28;20035;-83
2021/12/24 13:58:03;;;;;;;34.13;11.27;;;;;;;;;;5053801;28;20404;-83
2021/12/24 14:00:29;;;;;;;33.00;11.43;;;;;;;;;;5051078;28;20538;-82
2021/12/24 14:02:59;;;;;;;25.50;11.07;;;;;;;;;;5051559;28;20029;-83
2021/12/24 14:05:25;;;;;;;28.70;10.90;;;;;;;;;;5057807;28;20024;-83
2021/12/24 14:08:22;;;;;;;36.80;11.90;;;;;;;;;;5050775;28;20477;-83
2021/12/24 14:10:49;;;;;;;33.03;12.15;;;;;;;;;;5046320;28;20115;-82
2021/12/24 14:13:27;;;;;;;32.10;10.75;;;;;;;;;;5054440;28;20503;-83
2021/12/24 14:16:17;;;;;;;31.25;11.93;;;;;;;;;;5055080;28;20037;-83
2021/12/24 14:24:10;;;;;;;32.17;12.38;;;;;;;;;;5055890;28;20383;-82
2021/12/24 14:26:36;;;;;;;42.42;12.48;;;;;;;;;;5053805;28;20032;-82
2021/12/24 14:29:07;;;;;;;29.67;12.65;;;;;;;;;;5052437;28;20047;-82
2021/12/24 14:31:49;;;;;;;24.02;11.82;;;;;;;;;;5051911;28;20032;-83
2021/12/24 14:34:27;;;;;;;31.27;10.43;;;;;;;;;;5053852;28;20021;-82
2021/12/24 14:36:56;;;;;;;33.70;12.15;;;;;;;;;;5050359;28;20048;-83
2021/12/24 14:39:21;;;;;;;30.65;11.90;;;;;;;;;;5049663;28;20539;-83
2021/12/24 14:41:47;;;;;;;29.27;12.13;;;;;;;;;;5087392;28;20028;-83
2021/12/24 14:44:28;;;;;;;29.90;11.38;;;;;;;;;;5051990;28;20013;-83
2021/12/24 14:46:56;;;;;;;29.13;11.32;;;;;;;;;;5055166;28;20032;-84
2021/12/24 14:49:29;;;;;;;33.83;11.18;;;;;;;;;;5054262;28;20019;-83
2021/12/24 14:52:12;;;;;;;30.85;12.40;;;;;;;;;;5050148;28;20029;-83
2021/12/24 14:54:57;;;;;;;34.97;12.40;;;;;;;;;;5048756;28;20123;-83
2021/12/24 14:57:24;;;;;;;30.10;12.60;;;;;;;;;;5050981;28;20025;-83
2021/12/24 14:59:49;;;;;;;35.03;12.10;;;;;;;;;;5054040;28;20038;-84
2021/12/24 15:02:14;;;;;;;39.50;13.07;;;;;;;;;;5052302;28;20029;-83
2021/12/24 15:04:40;;;;;;;30.15;13.55;;;;;;;;;;5046366;28;20017;-83
2021/12/24 15:07:05;;;;;;;32.35;13.40;;;;;;;;;;5055079;28;20021;-84
2021/12/24 15:09:32;;;;;;;33.30;12.03;;;;;;;;;;5052755;28;20029;-83
2021/12/24 15:11:57;;;;;;;31.70;13.07;;;;;;;;;;5055379;28;20009;-83
2021/12/24 15:14:27;;;;;;;27.90;12.43;;;;;;;;;;5056036;28;20027;-82
2021/12/24 15:16:53;;;;;;;41.08;13.40;;;;;;;;;;5054357;28;20028;-83
2021/12/24 15:19:18;;;;;;;30.52;11.60;;;;;;;;;;5058625;28;20115;-82
2021/12/24 15:21:44;;;;;;;34.38;13.27;;;;;;;;;;5055851;28;20021;-82
2021/12/24 15:24:10;;;;;;;44.90;12.55;;;;;;;;;;5062106;28;20029;-84
2021/12/24 15:26:35;;;;;;;37.65;12.60;;;;;;;;;;5059239;28;20558;-84
2021/12/24 15:29:02;;;;;;;33.25;12.60;;;;;;;;;;5058731;28;20103;-84
2021/12/24 15:31:30;;;;;;;33.97;13.15;;;;;;;;;;5052262;28;20033;-83
2021/12/24 15:33:55;;;;;;;39.17;13.45;;;;;;;;;;5058894;28;20386;-82
2021/12/24 15:36:23;;;;;;;43.60;13.25;;;;;;;;;;5056803;28;20021;-83
2021/12/24 15:38:49;;;;;;;33.70;13.00;;;;;;;;;;5054178;28;20357;-83
2021/12/24 15:41:14;;;;;;;34.85;12.90;;;;;;;;;;5054090;28;20028;-83
2021/12/24 15:43:41;;;;;;;42.35;14.38;;;;;;;;;;5062217;28;20439;-81
2021/12/24 15:46:06;;;;;;;35.15;14.07;;;;;;;;;;5054498;28;20062;-80
2021/12/24 15:48:32;;;;;;;37.35;15.00;;;;;;;;;;5086214;28;20020;-81
2021/12/24 15:50:57;;;;;;;34.60;13.32;;;;;;;;;;5058527;28;20013;-81
2021/12/24 15:53:22;;;;;;;34.20;14.05;;;;;;;;;;5056718;28;20419;-80
2021/12/24 15:55:48;;;;;;;39.80;14.83;;;;;;;;;;5054619;28;20032;-80
2021/12/24 15:58:16;;;;;;;39.30;15.93;;;;;;;;;;5053967;28;20111;-81
2021/12/24 16:00:42;;;;;;;40.80;16.60;;;;;;;;;;5053407;28;20016;-82
2021/12/24 16:03:08;;;;;;;42.47;15.70;;;;;;;;;;5060374;28;20112;-82
2021/12/24 16:05:34;;;;;;;39.70;15.13;;;;;;;;;;5057190;28;20109;-82
2021/12/24 16:07:59;;;;;;;34.25;13.90;;;;;;;;;;5056439;28;20028;-81
2021/12/24 16:10:24;;;;;;;38.83;14.63;;;;;;;;;;5077727;28;20021;-81
2021/12/24 16:12:50;;;;;;;43.33;14.10;;;;;;;;;;5091529;28;20035;-81
2021/12/24 16:15:16;;;;;;;34.40;14.00;;;;;;;;;;5055402;28;20033;-82
2021/12/24 16:17:42;;;;;;;33.50;15.15;;;;;;;;;;5056303;28;20113;-82
2021/12/24 16:20:11;;;;;;;35.15;14.60;;;;;;;;;;5067570;28;20700;-82